createdAt,value
2019-05-22T00:00:04.820Z,8.23
2019-05-22T00:02:35.808Z,7.40
2019-05-22T00:05:15.212Z,11.57
2019-05-22T00:07:44.640Z,8.90
2019-05-22T00:10:16.836Z,13.93
2019-05-22T00:12:47.344Z,10.63
2019-05-22T00:15:18.087Z,11.20
2019-05-22T00:17:45.641Z,19.50
2019-05-22T00:20:13.596Z,15.80
2019-05-22T00:22:44.819Z,10.10
2019-05-22T00:25:17.596Z,9.30
2019-05-22T00:27:46.904Z,12.27
2019-05-22T00:30:17.349Z,14.83
2019-05-22T00:32:46.639Z,9.03
2019-05-22T00:35:15.716Z,9.10
2019-05-22T00:37:45.111Z,8.73
2019-05-22T00:40:14.742Z,8.03
2019-05-22T00:42:42.448Z,7.57
2019-05-22T00:45:12.635Z,8.10
2019-05-22T00:47:40.969Z,8.03
2019-05-22T00:50:15.732Z,7.83
2019-05-22T00:52:52.090Z,8.20
2019-05-22T00:55:30.935Z,7.60
2019-05-22T00:58:09.047Z,8.67
2019-05-22T01:00:42.107Z,7.73
2019-05-22T01:03:13.712Z,7.80
2019-05-22T01:05:42.801Z,7.90
2019-05-22T01:08:15.452Z,7.30
2019-05-22T01:10:43.841Z,7.50
2019-05-22T01:13:13.160Z,10.43
2019-05-22T01:15:41.265Z,11.17
2019-05-22T01:18:11.806Z,7.87
2019-05-22T01:20:41.751Z,9.80
2019-05-22T01:23:13.254Z,10.43
2019-05-22T01:25:42.293Z,8.00
2019-05-22T01:28:09.920Z,8.67
2019-05-22T01:30:45.507Z,7.97
2019-05-22T01:33:18.115Z,11.87
2019-05-22T01:36:04.720Z,9.13
2019-05-22T01:38:32.764Z,7.47
2019-05-22T01:41:07.496Z,8.30
2019-05-22T01:43:37.099Z,7.40
2019-05-22T01:46:05.551Z,7.30
2019-05-22T01:48:36.353Z,6.17
2019-05-22T01:51:05.752Z,7.37
2019-05-22T01:53:37.803Z,6.00
2019-05-22T01:56:07.933Z,6.37
2019-05-22T01:58:36.634Z,6.60
2019-05-22T02:01:09.032Z,6.33
2019-05-22T02:03:38.509Z,5.57
2019-05-22T02:06:06.804Z,5.70
2019-05-22T02:08:39.879Z,5.70
2019-05-22T02:11:12.816Z,5.67
2019-05-22T02:13:47.699Z,6.23
2019-05-22T02:16:16.541Z,5.80
2019-05-22T02:18:47.225Z,5.27
2019-05-22T02:21:16.275Z,4.80
2019-05-22T02:23:45.103Z,5.07
2019-05-22T02:26:12.848Z,4.50
2019-05-22T02:28:42.636Z,4.50
2019-05-22T02:31:14.451Z,5.17
2019-05-22T02:34:06.016Z,5.53
2019-05-22T02:36:36.577Z,5.37
2019-05-22T02:39:11.938Z,5.30
2019-05-22T02:41:45.587Z,5.23
2019-05-22T02:44:13.336Z,5.07
2019-05-22T02:46:41.553Z,5.30
2019-05-22T02:49:11.071Z,5.40
2019-05-22T02:51:42.097Z,5.60
2019-05-22T02:54:10.408Z,5.23
2019-05-22T02:56:37.984Z,4.70
2019-05-22T02:59:08.128Z,4.90
2019-05-22T03:01:36.763Z,4.90
2019-05-22T03:04:07.393Z,5.97
2019-05-22T03:06:35.436Z,5.30
2019-05-22T03:09:15.374Z,5.20
2019-05-22T03:11:51.483Z,4.93
2019-05-22T03:14:19.617Z,6.13
2019-05-22T03:16:53.636Z,6.30
2019-05-22T03:19:35.921Z,6.17
2019-05-22T03:22:16.797Z,6.10
2019-05-22T03:24:44.253Z,6.17
2019-05-22T03:27:12.798Z,6.20
2019-05-22T03:29:51.749Z,8.47
2019-05-22T03:32:19.493Z,6.87
2019-05-22T03:34:46.922Z,7.27
2019-05-22T03:37:14.845Z,7.47
2019-05-22T03:39:41.946Z,6.40
2019-05-22T03:42:12.405Z,7.40
2019-05-22T03:44:40.243Z,7.10
2019-05-22T03:47:11.045Z,7.20
2019-05-22T03:49:42.506Z,7.47
2019-05-22T03:52:11.740Z,7.30
2019-05-22T03:54:41.239Z,6.83
2019-05-22T03:57:10.064Z,7.10
2019-05-22T03:59:39.059Z,6.50
2019-05-22T04:02:07.875Z,7.23
2019-05-22T04:04:39.127Z,6.80
2019-05-22T04:07:10.397Z,6.30
2019-05-22T04:09:39.571Z,7.30
2019-05-22T04:12:08.295Z,7.03
2019-05-22T04:14:39.329Z,5.87
2019-05-22T04:17:10.081Z,6.30
2019-05-22T04:19:49.685Z,7.37
2019-05-22T04:22:09.484Z,6.70
2019-05-22T04:24:39.158Z,6.60
2019-05-22T04:27:07.097Z,6.30
2019-05-22T04:29:36.601Z,7.10
2019-05-22T04:32:22.120Z,6.90
2019-05-22T04:34:51.042Z,6.33
2019-05-22T04:37:19.330Z,7.57
2019-05-22T04:39:48.762Z,5.50
2019-05-22T04:42:17.585Z,5.70
2019-05-22T04:45:20.529Z,5.93
2019-05-22T04:47:56.617Z,5.70
2019-05-22T04:50:25.727Z,6.47
2019-05-22T04:52:53.421Z,6.80
2019-05-22T04:55:22.577Z,6.03
2019-05-22T04:57:50.124Z,5.87
2019-05-22T05:00:20.693Z,5.77
2019-05-22T05:02:49.120Z,5.60
2019-05-22T05:05:17.288Z,5.63
2019-05-22T05:07:44.950Z,4.93
2019-05-22T05:10:13.368Z,4.23
2019-05-22T05:12:41.801Z,4.80
2019-05-22T05:15:09.415Z,4.13
2019-05-22T05:17:38.553Z,5.43
2019-05-22T05:20:21.582Z,4.37
2019-05-22T05:22:41.252Z,5.07
2019-05-22T05:25:08.640Z,4.60
2019-05-22T05:27:36.521Z,5.10
2019-05-22T05:30:04.368Z,4.83
2019-05-22T05:32:33.460Z,4.70
2019-05-22T05:35:04.859Z,4.70
2019-05-22T05:37:33.148Z,3.70
2019-05-22T05:40:32.883Z,4.30
2019-05-22T05:43:01.605Z,3.40
2019-05-22T05:45:32.208Z,3.47
2019-05-22T05:48:01.666Z,3.37
2019-05-22T05:50:38.761Z,3.90
2019-05-22T05:53:01.192Z,3.83
2019-05-22T05:55:54.717Z,3.63
2019-05-22T05:58:27.097Z,2.67
2019-05-22T06:00:57.296Z,3.10
2019-05-22T06:03:30.768Z,2.70
2019-05-22T06:06:00.976Z,3.10
2019-05-22T06:08:28.339Z,3.17
2019-05-22T06:11:34.824Z,2.90
2019-05-22T06:14:05.472Z,2.70
2019-05-22T06:17:39.687Z,2.30
2019-05-22T06:20:11.855Z,3.00
2019-05-22T06:22:42.072Z,2.87
2019-05-22T06:25:11.912Z,2.70
2019-05-22T06:27:56.991Z,2.20
2019-05-22T06:30:40.580Z,2.43
2019-05-22T06:33:43.597Z,2.10
2019-05-22T06:36:13.929Z,2.97
2019-05-22T06:39:07.685Z,2.47
2019-05-22T06:41:37.912Z,2.40
2019-05-22T06:44:40.730Z,2.73
2019-05-22T06:47:12.758Z,2.40
2019-05-22T06:49:44.925Z,2.77
2019-05-22T06:52:12.444Z,2.67
2019-05-22T06:54:41.088Z,2.83
2019-05-22T06:57:12.911Z,3.20
2019-05-22T06:59:42.724Z,3.10
2019-05-22T07:02:12.427Z,3.70
2019-05-22T07:04:40.132Z,3.77
2019-05-22T07:07:11.735Z,3.20
2019-05-22T07:09:40.328Z,2.70
2019-05-22T07:12:12.453Z,2.87
2019-05-22T07:15:13.404Z,3.07
2019-05-22T07:17:42.751Z,3.10
2019-05-22T07:20:12.532Z,3.60
2019-05-22T07:22:43.219Z,3.20
2019-05-22T07:25:12.612Z,3.30
2019-05-22T07:27:40.507Z,3.17
2019-05-22T07:30:09.744Z,2.87
2019-05-22T07:32:39.251Z,3.20
2019-05-22T07:35:09.893Z,3.50
2019-05-22T07:37:40.292Z,3.33
2019-05-22T07:40:09.160Z,3.80
2019-05-22T07:42:37.081Z,3.30
2019-05-22T07:45:06.041Z,3.60
2019-05-22T07:47:35.021Z,4.37
2019-05-22T07:50:02.643Z,3.57
2019-05-22T07:52:31.816Z,3.60
2019-05-22T07:54:59.407Z,3.70
2019-05-22T07:57:29.508Z,3.17
2019-05-22T07:59:56.912Z,3.20
2019-05-22T08:02:31.134Z,3.67
2019-05-22T08:05:00.618Z,2.70
2019-05-22T08:07:30.328Z,3.63
2019-05-22T08:09:57.528Z,3.77
2019-05-22T08:12:25.855Z,3.93
2019-05-22T08:14:55.236Z,3.50
2019-05-22T08:17:22.697Z,3.57
2019-05-22T08:19:50.200Z,3.90
2019-05-22T08:22:18.620Z,2.53
2019-05-22T08:24:46.173Z,2.97
2019-05-22T08:27:16.392Z,3.20
2019-05-22T08:29:44.793Z,3.17
2019-05-22T08:32:12.503Z,3.27
2019-05-22T08:34:39.788Z,2.73
2019-05-22T08:37:11.252Z,2.70
2019-05-22T08:39:39.445Z,2.40
2019-05-22T08:42:10.603Z,3.10
2019-05-22T08:44:39.395Z,3.13
2019-05-22T08:47:07.544Z,3.20
2019-05-22T08:49:35.152Z,2.57
2019-05-22T08:52:03.888Z,3.67
2019-05-22T08:54:33.207Z,3.43
2019-05-22T08:57:01.767Z,3.70
2019-05-22T08:59:28.996Z,3.90
2019-05-22T09:01:56.622Z,4.83
2019-05-22T09:04:24.310Z,5.30
2019-05-22T09:06:51.917Z,4.50
2019-05-22T09:09:20.092Z,4.80
2019-05-22T09:11:48.949Z,4.10
2019-05-22T09:14:16.743Z,4.23
2019-05-22T09:16:45.129Z,3.93
2019-05-22T09:19:13.526Z,4.50
2019-05-22T09:21:41.152Z,6.60
2019-05-22T09:24:13.710Z,7.47
2019-05-22T09:26:41.695Z,6.47
2019-05-22T09:29:09.059Z,6.93
2019-05-22T09:31:36.864Z,6.73
2019-05-22T09:34:05.284Z,7.00
2019-05-22T09:36:33.700Z,7.83
2019-05-22T09:39:01.442Z,6.83
2019-05-22T09:41:29.191Z,6.40
2019-05-22T09:43:56.308Z,6.60
2019-05-22T09:46:25.038Z,6.50
2019-05-22T09:48:52.175Z,6.97
2019-05-22T09:51:19.464Z,5.80
2019-05-22T09:53:47.273Z,5.73
2019-05-22T09:56:16.413Z,4.70
2019-05-22T09:58:46.271Z,6.00
2019-05-22T10:01:15.625Z,5.43
2019-05-22T10:03:43.280Z,6.37
2019-05-22T10:06:11.902Z,6.00
2019-05-22T10:08:38.985Z,5.93
2019-05-22T10:11:08.173Z,5.43
2019-05-22T10:13:35.692Z,5.70
2019-05-22T10:16:03.932Z,6.17
2019-05-22T10:18:31.698Z,6.60
2019-05-22T10:21:00.624Z,6.90
2019-05-22T10:23:29.452Z,7.53
2019-05-22T10:25:56.446Z,8.47
2019-05-22T10:28:24.786Z,8.90
2019-05-22T10:30:52.598Z,8.37
2019-05-22T10:33:21.441Z,9.13
2019-05-22T10:35:49.232Z,12.50
2019-05-22T10:38:17.039Z,9.20
2019-05-22T10:40:44.516Z,10.07
2019-05-22T10:43:13.050Z,9.03
2019-05-22T10:45:41.366Z,10.10
2019-05-22T10:48:10.300Z,9.30
2019-05-22T10:50:38.619Z,10.20
2019-05-22T10:53:06.833Z,10.40
2019-05-22T10:55:34.469Z,9.70
2019-05-22T10:58:02.823Z,9.40
2019-05-22T11:00:30.941Z,10.53
2019-05-22T11:02:58.632Z,9.07
2019-05-22T11:05:26.939Z,8.67
2019-05-22T11:07:54.944Z,8.13
2019-05-22T11:10:24.546Z,9.50
2019-05-22T11:12:53.417Z,10.10
2019-05-22T11:15:22.521Z,9.10
2019-05-22T11:17:50.881Z,7.73
2019-05-22T11:20:20.925Z,8.50
2019-05-22T11:22:49.551Z,9.23
2019-05-22T11:25:17.521Z,8.50
2019-05-22T11:27:44.838Z,8.10
2019-05-22T11:30:15.185Z,8.83
2019-05-22T11:32:42.636Z,7.80
2019-05-22T11:35:11.760Z,9.53
2019-05-22T11:37:39.885Z,7.67
2019-05-22T11:40:07.864Z,7.80
2019-05-22T11:42:37.396Z,8.60
2019-05-22T11:45:05.568Z,8.17
2019-05-22T11:47:33.869Z,8.47
2019-05-22T11:50:01.397Z,7.37
2019-05-22T11:52:29.286Z,7.63
2019-05-22T11:54:57.168Z,6.20
2019-05-22T11:57:25.960Z,7.27
2019-05-22T11:59:55.336Z,6.80
2019-05-22T12:02:23.540Z,6.03
2019-05-22T12:04:51.704Z,6.63
2019-05-22T12:07:19.732Z,6.50
2019-05-22T12:09:47.972Z,7.50
2019-05-22T12:12:16.480Z,7.10
2019-05-22T12:14:44.468Z,6.63
2019-05-22T12:17:11.965Z,7.40
2019-05-22T12:19:39.465Z,7.10
2019-05-22T12:22:07.204Z,7.10
2019-05-22T12:24:37.226Z,6.37
2019-05-22T12:27:05.417Z,7.50
2019-05-22T12:29:32.581Z,7.20
2019-05-22T12:32:00.833Z,5.97
2019-05-22T12:34:28.846Z,7.37
2019-05-22T12:36:56.825Z,8.00
2019-05-22T12:39:26.651Z,9.45
2019-05-22T12:41:54.691Z,11.40
2019-05-22T12:44:23.094Z,9.20
2019-05-22T12:46:50.733Z,6.33
2019-05-22T12:49:19.019Z,7.90
2019-05-22T12:51:47.070Z,6.83
2019-05-22T12:54:14.800Z,5.87
2019-05-22T12:56:42.185Z,7.40
2019-05-22T12:59:10.609Z,6.40
2019-05-22T13:01:40.014Z,7.27
2019-05-22T13:04:08.299Z,8.10
2019-05-22T13:06:36.296Z,6.93
2019-05-22T13:09:08.858Z,7.97
2019-05-22T13:11:36.334Z,6.93
2019-05-22T13:14:03.568Z,7.07
2019-05-22T13:16:30.835Z,7.50
2019-05-22T13:18:57.993Z,7.43
2019-05-22T13:21:30.120Z,6.50
2019-05-22T13:23:59.890Z,7.17
2019-05-22T13:26:27.523Z,5.60
2019-05-22T13:28:56.875Z,7.40
2019-05-22T13:31:24.424Z,7.53
2019-05-22T13:33:52.499Z,7.33
2019-05-22T13:36:20.544Z,8.17
2019-05-22T13:38:48.680Z,6.57
2019-05-22T13:41:16.004Z,7.00
2019-05-22T13:43:43.699Z,6.43
2019-05-22T13:46:12.811Z,7.43
2019-05-22T13:48:40.794Z,8.60
2019-05-22T13:51:10.161Z,7.10
2019-05-22T13:53:39.852Z,7.10
2019-05-22T13:56:09.536Z,7.17
2019-05-22T13:58:38.649Z,7.97
2019-05-22T14:01:06.538Z,9.13
2019-05-22T14:03:34.416Z,7.67
2019-05-22T14:06:03.374Z,8.10
2019-05-22T14:08:30.900Z,7.73
2019-05-22T14:10:58.040Z,7.67
2019-05-22T14:13:28.212Z,7.47
2019-05-22T14:15:57.214Z,7.13
2019-05-22T14:18:25.012Z,7.40
2019-05-22T14:20:52.620Z,8.63
2019-05-22T14:23:20.140Z,8.17
2019-05-22T14:25:50.334Z,6.70
2019-05-22T14:28:18.554Z,6.90
2019-05-22T14:30:46.474Z,7.57
2019-05-22T14:33:14.397Z,6.90
2019-05-22T14:35:48.696Z,7.60
2019-05-22T14:38:12.634Z,5.67
2019-05-22T14:40:40.290Z,7.00
2019-05-22T14:43:09.476Z,8.17
2019-05-22T14:45:37.388Z,7.90
2019-05-22T14:48:04.876Z,6.50
2019-05-22T14:50:33.094Z,7.97
2019-05-22T14:53:00.797Z,6.57
2019-05-22T14:55:28.976Z,5.93
2019-05-22T14:57:57.988Z,6.80
2019-05-22T15:00:26.486Z,7.17
2019-05-22T15:02:57.955Z,7.67
2019-05-22T15:05:23.740Z,6.70
2019-05-22T15:07:51.111Z,6.80
2019-05-22T15:10:20.477Z,6.63
2019-05-22T15:12:49.644Z,7.00
2019-05-22T15:15:19.482Z,6.57
2019-05-22T15:17:46.775Z,7.97
2019-05-22T15:20:18.029Z,6.80
2019-05-22T15:22:45.352Z,5.77
2019-05-22T15:25:12.739Z,6.00
2019-05-22T15:27:40.857Z,7.50
2019-05-22T15:30:09.829Z,6.03
2019-05-22T15:32:37.048Z,7.53
2019-05-22T15:35:05.076Z,7.17
2019-05-22T15:37:33.814Z,6.30
2019-05-22T15:40:02.642Z,6.93
2019-05-22T15:42:36.500Z,6.40
2019-05-22T15:45:07.757Z,6.70
2019-05-22T15:47:52.382Z,7.03
2019-05-22T15:50:09.874Z,6.67
2019-05-22T15:52:40.021Z,7.73
2019-05-22T15:55:09.991Z,5.37
2019-05-22T15:57:38.573Z,6.20
2019-05-22T16:00:10.161Z,6.77
2019-05-22T16:02:39.540Z,8.33
2019-05-22T16:05:07.580Z,7.30
2019-05-22T16:07:38.557Z,7.40
2019-05-22T16:10:08.880Z,6.73
2019-05-22T16:12:38.407Z,7.13
2019-05-22T16:15:07.280Z,8.00
2019-05-22T16:17:41.384Z,8.03
2019-05-22T16:20:07.404Z,14.40
2019-05-22T16:22:35.391Z,8.87
2019-05-22T16:25:04.013Z,6.73
2019-05-22T16:27:32.381Z,7.37
2019-05-22T16:30:02.012Z,6.00
2019-05-22T16:32:32.536Z,6.40
2019-05-22T16:35:00.819Z,7.23
2019-05-22T16:37:29.972Z,7.50
2019-05-22T16:39:58.287Z,5.50
2019-05-22T16:42:26.075Z,5.93
2019-05-22T16:44:53.328Z,7.20
2019-05-22T16:47:23.460Z,6.80
2019-05-22T16:49:52.536Z,6.63
2019-05-22T16:52:20.476Z,7.00
2019-05-22T16:54:48.473Z,6.70
2019-05-22T16:57:15.804Z,6.23
2019-05-22T16:59:43.797Z,6.73
2019-05-22T17:02:13.402Z,6.47
2019-05-22T17:04:42.231Z,6.20
2019-05-22T17:07:10.552Z,6.07
2019-05-22T17:09:40.175Z,5.70
2019-05-22T17:12:09.343Z,6.23
2019-05-22T17:14:37.270Z,7.20
2019-05-22T17:17:08.301Z,6.93
2019-05-22T17:19:38.272Z,5.90
2019-05-22T17:22:08.630Z,6.40
2019-05-22T17:24:38.835Z,6.53
2019-05-22T17:27:09.662Z,6.40
2019-05-22T17:29:38.769Z,6.10
2019-05-22T17:32:07.659Z,5.53
2019-05-22T17:34:38.219Z,6.27
2019-05-22T17:37:18.947Z,5.60
2019-05-22T17:39:50.404Z,7.30
2019-05-22T17:42:23.009Z,5.97
2019-05-22T17:44:53.861Z,6.80
2019-05-22T17:47:24.669Z,5.37
2019-05-22T17:49:54.338Z,5.70
2019-05-22T17:52:25.338Z,6.47
2019-05-22T17:54:55.859Z,6.40
2019-05-22T17:57:25.285Z,6.27
2019-05-22T17:59:57.177Z,6.13
2019-05-22T18:02:28.916Z,7.00
2019-05-22T18:04:57.007Z,7.40
2019-05-22T18:07:25.645Z,6.60
2019-05-22T18:09:54.788Z,7.77
2019-05-22T18:12:22.504Z,6.70
2019-05-22T18:14:50.218Z,6.77
2019-05-22T18:17:18.142Z,7.07
2019-05-22T18:19:46.140Z,6.30
2019-05-22T18:22:14.458Z,6.43
2019-05-22T18:24:42.069Z,6.13
2019-05-22T18:27:10.052Z,6.10
2019-05-22T18:29:38.624Z,6.40
2019-05-22T18:32:07.216Z,6.50
2019-05-22T18:34:35.128Z,6.17
2019-05-22T18:37:04.947Z,6.10
2019-05-22T18:39:34.504Z,6.40
2019-05-22T18:42:01.682Z,6.73
2019-05-22T18:44:29.860Z,6.00
2019-05-22T18:47:00.173Z,6.30
2019-05-22T18:49:29.345Z,6.43
2019-05-22T18:51:59.532Z,14.40
2019-05-22T18:54:30.143Z,14.33
2019-05-22T18:56:58.515Z,9.93
2019-05-22T18:59:27.617Z,7.80
2019-05-22T19:01:55.916Z,7.37
2019-05-22T19:04:22.972Z,8.23
2019-05-22T19:06:51.008Z,10.60
2019-05-22T19:09:18.570Z,9.90
2019-05-22T19:11:46.043Z,9.70
2019-05-22T19:14:14.298Z,8.07
2019-05-22T19:16:41.534Z,7.27
2019-05-22T19:19:09.386Z,7.23
2019-05-22T19:21:36.751Z,6.37
2019-05-22T19:24:04.375Z,7.30
2019-05-22T19:26:31.622Z,6.43
2019-05-22T19:28:59.899Z,6.47
2019-05-22T19:31:29.076Z,6.97
2019-05-22T19:33:57.852Z,6.33
2019-05-22T19:36:24.928Z,5.63
2019-05-22T19:38:52.557Z,6.90
2019-05-22T19:41:20.932Z,6.33
2019-05-22T19:43:49.198Z,7.37
2019-05-22T19:46:16.823Z,6.53
2019-05-22T19:48:44.050Z,6.70
2019-05-22T19:51:16.319Z,6.90
2019-05-22T19:53:45.088Z,6.40
2019-05-22T19:56:12.556Z,6.40
2019-05-22T19:58:40.006Z,7.03
2019-05-22T20:01:08.251Z,6.80
2019-05-22T20:03:36.380Z,7.17
2019-05-22T20:06:04.705Z,6.60
2019-05-22T20:08:36.330Z,6.63
2019-05-22T20:11:04.777Z,6.80
2019-05-22T20:13:32.848Z,6.27
2019-05-22T20:16:00.272Z,5.90
2019-05-22T20:18:27.443Z,6.57
2019-05-22T20:20:54.647Z,6.73
2019-05-22T20:23:35.561Z,6.70
2019-05-22T20:25:52.864Z,5.50
2019-05-22T20:28:21.852Z,5.97
2019-05-22T20:30:48.976Z,6.33
2019-05-22T20:33:18.296Z,6.27
2019-05-22T20:35:45.787Z,5.83
2019-05-22T20:38:13.268Z,6.20
2019-05-22T20:40:41.695Z,6.50
2019-05-22T20:43:10.324Z,13.50
2019-05-22T20:45:40.198Z,13.63
2019-05-22T20:48:13.838Z,7.80
2019-05-22T20:50:42.668Z,6.07
2019-05-22T20:53:15.884Z,5.13
2019-05-22T20:55:44.656Z,5.90
2019-05-22T20:58:13.894Z,5.70
2019-05-22T21:00:56.868Z,6.60
2019-05-22T21:03:28.982Z,6.10
2019-05-22T21:05:56.897Z,5.77
2019-05-22T21:08:25.933Z,5.70
2019-05-22T21:10:55.876Z,6.50
2019-05-22T21:13:23.160Z,6.17
2019-05-22T21:15:51.696Z,6.30
2019-05-22T21:18:25.208Z,6.33
2019-05-22T21:20:55.500Z,6.50
2019-05-22T21:23:25.088Z,6.10
2019-05-22T21:25:52.568Z,5.17
2019-05-22T21:28:20.892Z,4.90
2019-05-22T21:30:49.219Z,5.10
2019-05-22T21:33:17.152Z,6.00
2019-05-22T21:35:44.552Z,5.43
2019-05-22T21:38:12.936Z,4.97
2019-05-22T21:40:40.509Z,4.70
2019-05-22T21:43:10.164Z,5.10
2019-05-22T21:45:38.001Z,4.80
2019-05-22T21:48:06.086Z,4.87
2019-05-22T21:50:33.884Z,4.67
2019-05-22T21:53:01.671Z,5.30
2019-05-22T21:55:31.540Z,4.57
2019-05-22T21:57:58.827Z,4.67
2019-05-22T22:00:45.183Z,4.70
2019-05-22T22:03:14.025Z,4.73
2019-05-22T22:05:43.880Z,4.63
2019-05-22T22:08:11.867Z,5.03
2019-05-22T22:10:39.502Z,6.30
2019-05-22T22:13:07.769Z,9.07
2019-05-22T22:15:39.600Z,7.00
2019-05-22T22:18:06.923Z,10.53
2019-05-22T22:20:36.311Z,12.80
2019-05-22T22:23:04.631Z,6.77
2019-05-22T22:25:31.932Z,4.40
2019-05-22T22:28:00.773Z,4.63
2019-05-22T22:30:38.144Z,4.50
2019-05-22T22:33:08.620Z,4.60
2019-05-22T22:35:37.431Z,5.17
2019-05-22T22:38:06.145Z,4.47
2019-05-22T22:40:33.448Z,4.23
2019-05-22T22:43:02.588Z,4.60
2019-05-22T22:45:40.559Z,4.90
2019-05-22T22:48:07.904Z,4.10
2019-05-22T22:50:37.637Z,4.20
2019-05-22T22:53:05.427Z,4.43
2019-05-22T22:55:33.619Z,4.63
2019-05-22T22:58:16.036Z,3.90
2019-05-22T23:00:37.180Z,4.07
2019-05-22T23:03:10.124Z,4.23
2019-05-22T23:05:39.002Z,4.50
2019-05-22T23:08:09.880Z,4.53
2019-05-22T23:10:40.118Z,3.90
2019-05-22T23:13:07.972Z,4.03
2019-05-22T23:15:37.160Z,3.80
2019-05-22T23:18:06.268Z,4.00
2019-05-22T23:20:33.370Z,5.27
2019-05-22T23:22:59.839Z,4.10
2019-05-22T23:25:28.692Z,4.37
2019-05-22T23:27:56.786Z,4.07
2019-05-22T23:30:23.897Z,4.50
2019-05-22T23:32:51.556Z,3.83
2019-05-22T23:35:20.451Z,4.03
2019-05-22T23:37:47.872Z,3.87
2019-05-22T23:40:22.047Z,4.10
2019-05-22T23:42:49.663Z,3.97
2019-05-22T23:45:21.240Z,4.10
2019-05-22T23:48:02.812Z,3.30
2019-05-22T23:50:32.725Z,3.70
2019-05-22T23:53:00.359Z,4.80
2019-05-22T23:55:29.384Z,10.03
2019-05-22T23:57:58.025Z,21.50
